Etusivu
METAR-TAF:

METAR-TAF

Lentoasemat :

Jendouba, Tunisia

Leveyspiiri: 36-29N, Pituuspiiri: 008-48E, korkeus merenpinnasta: 143 m

Tämänhetkinen sää

Tämä raportti tehtiin 1 tunti ja 9 minuuttia sitten, kello 14.00 UTC
Tuuli 4 kn pohjoisesta, vaihdellen lännen ja koillisen välillä
Lämpötila 28°C
Kosteus 28%
Ilmanpaine 1013 hPa
Näkyvyys 10 km tai enemmän
Hajanaisia pilviä 2000 ft:n korkeudessa

METAR: DTTN 231400Z 35004KT 280V040 9999 SCT020 28/08 Q1013

Aika: 16:09 (15:09 UTC)


TAF: puuttuu

Säähavainnot ja -ennusteet yli 4000 lentoasemalta (METAR- ja TAF-raportit).

Käytössä olevat sääasemat on merkitty karttaan keltaisilla ja punaisilla pisteillä.

Aseta hiiri pisteen päälle nähdäksesi sääaseman nimen.

Klikkaa sitten nähdäksesi säähavainnot ja -ennusteet.

Kartan vaihtaminen: klikkaa mustalla rastilla varustettuja vihreitä pisteitä, niin voit zoomata sisään; viivalla varustettua vihreää pistettä, niin voit zoomata ulos tai vihreitä nuolia, niin pääset viereisille kartoille.


METAR-TAF: